createdAt,value
2018-12-20T00:00:03.481Z,10.00
2018-12-20T00:02:38.288Z,8.70
2018-12-20T00:05:12.913Z,8.65
2018-12-20T00:07:47.563Z,8.13
2018-12-20T00:10:22.314Z,9.60
2018-12-20T00:12:56.936Z,9.30
2018-12-20T00:15:31.581Z,8.60
2018-12-20T00:18:06.101Z,10.53
2018-12-20T00:20:40.702Z,7.78
2018-12-20T00:23:15.458Z,8.90
2018-12-20T00:25:50.102Z,9.10
2018-12-20T00:28:24.624Z,8.18
2018-12-20T00:31:00.538Z,8.68
2018-12-20T00:33:35.373Z,5.90
2018-12-20T00:36:10.176Z,6.65
2018-12-20T00:38:44.796Z,6.83
2018-12-20T00:41:19.459Z,5.87
2018-12-20T00:43:55.060Z,6.28
2018-12-20T00:46:29.632Z,5.78
2018-12-20T00:49:04.313Z,5.40
2018-12-20T00:51:39.037Z,7.95
2018-12-20T00:54:13.683Z,12.70
2018-12-20T00:56:48.221Z,26.30
2018-12-20T00:59:22.665Z,19.02
2018-12-20T01:01:57.263Z,15.98
2018-12-20T01:04:31.827Z,16.02
2018-12-20T01:07:06.574Z,9.03
2018-12-20T01:09:41.278Z,6.05
2018-12-20T01:12:16.304Z,6.37
2018-12-20T01:14:51.307Z,7.00
2018-12-20T01:17:30.450Z,5.92
2018-12-20T01:20:05.967Z,6.60
2018-12-20T01:22:40.909Z,6.83
2018-12-20T01:25:15.542Z,5.75
2018-12-20T01:27:50.342Z,6.35
2018-12-20T01:30:25.076Z,7.25
2018-12-20T01:32:59.871Z,5.80
2018-12-20T01:35:36.773Z,6.30
2018-12-20T01:38:11.426Z,7.55
2018-12-20T01:40:46.797Z,7.90
2018-12-20T01:43:21.826Z,7.55
2018-12-20T01:46:01.386Z,7.37
2018-12-20T01:48:36.090Z,6.85
2018-12-20T01:51:10.947Z,11.28
2018-12-20T01:53:45.801Z,12.25
2018-12-20T01:56:20.449Z,9.60
2018-12-20T01:58:55.426Z,6.87
2018-12-20T02:01:30.434Z,5.40
2018-12-20T02:04:05.961Z,4.85
2018-12-20T02:06:40.943Z,4.85
2018-12-20T02:09:16.703Z,3.90
2018-12-20T02:11:51.309Z,5.80
2018-12-20T02:14:25.755Z,4.85
2018-12-20T02:17:00.494Z,5.20
2018-12-20T02:19:35.177Z,4.12
2018-12-20T02:22:09.872Z,5.45
2018-12-20T02:24:44.723Z,5.20
2018-12-20T02:27:19.291Z,5.35
2018-12-20T02:29:53.796Z,4.58
2018-12-20T02:32:28.428Z,4.78
2018-12-20T02:35:03.123Z,4.10
2018-12-20T02:37:37.894Z,4.12
2018-12-20T02:40:12.616Z,3.58
2018-12-20T02:42:48.353Z,3.58
2018-12-20T02:45:24.072Z,3.47
2018-12-20T02:47:58.773Z,4.47
2018-12-20T02:50:37.320Z,11.55
2018-12-20T02:53:16.196Z,13.95
2018-12-20T02:55:50.790Z,3.67
2018-12-20T02:58:25.423Z,6.33
2018-12-20T03:01:01.346Z,4.65
2018-12-20T03:03:42.439Z,4.08
2018-12-20T03:06:18.097Z,5.83
2018-12-20T03:08:52.868Z,5.05
2018-12-20T03:11:27.691Z,5.87
2018-12-20T03:14:02.635Z,7.60
2018-12-20T03:16:37.368Z,6.65
2018-12-20T03:19:12.223Z,4.75
2018-12-20T03:21:56.713Z,4.12
2018-12-20T03:24:38.475Z,5.95
2018-12-20T03:27:13.491Z,4.80
2018-12-20T03:29:48.532Z,7.65
2018-12-20T03:32:23.764Z,8.63
2018-12-20T03:34:58.866Z,4.42
2018-12-20T03:37:34.596Z,10.60
2018-12-20T03:40:11.362Z,24.82
2018-12-20T03:42:46.385Z,19.40
2018-12-20T03:45:28.376Z,10.88
2018-12-20T03:47:58.149Z,6.62
2018-12-20T03:50:33.211Z,3.25
2018-12-20T03:53:08.128Z,2.87
2018-12-20T03:55:42.816Z,3.55
2018-12-20T03:58:17.478Z,3.87
2018-12-20T04:00:53.387Z,3.20
2018-12-20T04:03:27.904Z,3.10
2018-12-20T04:06:02.604Z,3.17
2018-12-20T04:08:37.327Z,3.25
2018-12-20T04:11:13.024Z,3.90
2018-12-20T04:13:47.683Z,3.05
2018-12-20T04:16:22.314Z,4.03
2018-12-20T04:18:57.314Z,3.45
2018-12-20T04:21:32.400Z,3.70
2018-12-20T04:24:07.375Z,3.15
2018-12-20T04:26:42.283Z,3.90
2018-12-20T04:29:18.975Z,5.10
2018-12-20T04:31:56.841Z,5.05
2018-12-20T04:34:31.404Z,6.20
2018-12-20T04:37:06.025Z,11.28
2018-12-20T04:39:42.916Z,10.23
2018-12-20T04:42:19.015Z,7.60
2018-12-20T04:44:53.744Z,5.58
2018-12-20T04:47:28.233Z,4.12
2018-12-20T04:50:02.679Z,3.83
2018-12-20T04:52:41.751Z,4.15
2018-12-20T04:55:16.466Z,3.70
2018-12-20T04:57:51.225Z,3.87
2018-12-20T05:00:27.049Z,4.80
2018-12-20T05:03:01.753Z,4.45
2018-12-20T05:05:36.496Z,4.00
2018-12-20T05:08:11.117Z,4.10
2018-12-20T05:10:45.752Z,3.83
2018-12-20T05:13:21.020Z,4.90
2018-12-20T05:15:56.608Z,4.20
2018-12-20T05:18:31.556Z,3.92
2018-12-20T05:21:06.174Z,4.60
2018-12-20T05:23:43.974Z,4.85
2018-12-20T05:26:19.206Z,5.03
2018-12-20T05:28:53.862Z,7.00
2018-12-20T05:31:28.332Z,5.60
2018-12-20T05:34:02.914Z,14.70
2018-12-20T05:36:37.695Z,8.28
2018-12-20T05:39:12.310Z,5.97
2018-12-20T05:41:46.996Z,3.67
2018-12-20T05:44:21.438Z,3.98
2018-12-20T05:46:56.081Z,4.05
2018-12-20T05:49:30.527Z,4.87
2018-12-20T05:52:10.752Z,3.95
2018-12-20T05:54:45.274Z,4.03
2018-12-20T05:57:19.671Z,5.33
2018-12-20T05:59:54.181Z,5.28
2018-12-20T06:02:28.986Z,4.08
2018-12-20T06:05:03.893Z,4.75
2018-12-20T06:07:38.687Z,6.40
2018-12-20T06:10:13.689Z,6.40
2018-12-20T06:12:48.443Z,5.78
2018-12-20T06:15:23.111Z,4.47
2018-12-20T06:17:59.000Z,6.85
2018-12-20T06:20:33.867Z,8.20
2018-12-20T06:23:08.587Z,6.55
2018-12-20T06:25:43.085Z,6.65
2018-12-20T06:28:17.747Z,10.03
2018-12-20T06:30:52.417Z,11.12
2018-12-20T06:33:27.182Z,32.83
2018-12-20T06:36:01.719Z,13.03
2018-12-20T06:38:36.220Z,6.53
2018-12-20T06:41:10.983Z,6.00
2018-12-20T06:43:47.552Z,13.22
2018-12-20T06:46:22.076Z,3.90
2018-12-20T06:48:56.758Z,10.53
2018-12-20T06:51:31.305Z,6.78
2018-12-20T06:54:05.939Z,13.85
2018-12-20T06:56:40.567Z,6.47
2018-12-20T06:59:15.470Z,12.80
2018-12-20T07:01:50.285Z,26.42
2018-12-20T07:04:24.993Z,11.10
2018-12-20T07:06:59.533Z,5.35
2018-12-20T07:09:34.082Z,3.20
2018-12-20T07:12:08.741Z,4.22
2018-12-20T07:14:43.397Z,3.45
2018-12-20T07:17:18.056Z,2.60
2018-12-20T07:19:52.803Z,3.42
2018-12-20T07:22:27.427Z,3.50
2018-12-20T07:25:02.017Z,3.37
2018-12-20T07:27:36.822Z,4.03
2018-12-20T07:30:11.891Z,9.85
2018-12-20T07:32:46.311Z,9.38
2018-12-20T07:35:20.830Z,10.20
2018-12-20T07:37:55.526Z,7.03
2018-12-20T07:40:30.514Z,4.60
2018-12-20T07:43:04.987Z,4.47
2018-12-20T07:45:39.635Z,3.50
2018-12-20T07:48:14.325Z,8.00
2018-12-20T07:50:49.037Z,7.50
2018-12-20T07:53:23.730Z,5.08
2018-12-20T07:56:02.467Z,7.00
2018-12-20T07:58:37.203Z,5.78
2018-12-20T08:01:11.752Z,5.37
2018-12-20T08:03:46.509Z,5.25
2018-12-20T08:06:22.067Z,3.15
2018-12-20T08:08:56.789Z,5.80
2018-12-20T08:11:31.577Z,11.80
2018-12-20T08:14:06.389Z,7.72
2018-12-20T08:16:46.029Z,7.10
2018-12-20T08:19:17.514Z,7.15
2018-12-20T08:21:51.995Z,5.95
2018-12-20T08:24:26.760Z,5.95
2018-12-20T08:27:01.433Z,11.00
2018-12-20T08:29:36.086Z,13.38
2018-12-20T08:32:10.754Z,11.20
2018-12-20T08:34:45.500Z,18.12
2018-12-20T08:37:20.032Z,11.15
2018-12-20T08:39:54.609Z,9.60
2018-12-20T08:42:29.230Z,4.90
2018-12-20T08:45:03.997Z,3.33
2018-12-20T08:47:38.528Z,5.25
2018-12-20T08:50:13.271Z,3.15
2018-12-20T08:52:47.874Z,1.82
2018-12-20T08:55:23.668Z,2.30
2018-12-20T08:57:58.400Z,2.40
2018-12-20T09:00:33.058Z,2.87
2018-12-20T09:03:07.514Z,2.85
2018-12-20T09:05:41.961Z,3.15
2018-12-20T09:08:16.479Z,3.20
2018-12-20T09:10:51.124Z,2.15
2018-12-20T09:13:25.736Z,2.72
2018-12-20T09:16:00.314Z,2.80
2018-12-20T09:18:34.885Z,2.83
2018-12-20T09:21:09.423Z,3.20
2018-12-20T09:23:44.169Z,3.00
2018-12-20T09:26:19.003Z,4.67
2018-12-20T09:28:53.701Z,5.12
2018-12-20T09:31:28.179Z,5.10
2018-12-20T09:34:02.705Z,12.00
2018-12-20T09:36:37.499Z,9.13
2018-12-20T09:39:12.144Z,2.95
2018-12-20T09:41:46.866Z,1.55
2018-12-20T09:44:21.443Z,2.75
2018-12-20T09:47:00.247Z,2.90
2018-12-20T09:49:34.749Z,2.85
2018-12-20T09:52:09.454Z,3.50
2018-12-20T09:54:45.069Z,3.20
2018-12-20T09:57:19.760Z,5.33
2018-12-20T09:59:54.518Z,4.95
2018-12-20T10:02:29.191Z,3.45
2018-12-20T10:05:04.104Z,2.20
2018-12-20T10:07:39.875Z,1.82
2018-12-20T10:10:14.634Z,3.20
2018-12-20T10:12:49.354Z,1.25
2018-12-20T10:15:24.096Z,1.60
2018-12-20T10:17:58.729Z,3.87
2018-12-20T10:20:33.506Z,1.70
2018-12-20T10:23:08.021Z,1.57
2018-12-20T10:25:44.760Z,2.20
2018-12-20T10:28:19.520Z,5.75
2018-12-20T10:30:54.050Z,10.23
2018-12-20T10:33:28.889Z,8.90
2018-12-20T10:36:04.130Z,2.47
2018-12-20T10:38:38.649Z,0.88
2018-12-20T10:41:13.461Z,1.00
2018-12-20T10:43:49.146Z,1.10
2018-12-20T10:46:23.817Z,1.12
2018-12-20T10:48:58.373Z,0.82
2018-12-20T10:51:37.689Z,1.10
2018-12-20T10:54:12.243Z,2.17
2018-12-20T10:56:46.791Z,1.40
2018-12-20T10:59:21.515Z,0.70
2018-12-20T11:02:01.421Z,1.40
2018-12-20T11:04:41.440Z,2.33
2018-12-20T11:07:21.303Z,1.60
2018-12-20T11:10:01.255Z,0.90
2018-12-20T11:12:41.156Z,6.05
2018-12-20T11:15:16.227Z,1.00
2018-12-20T11:17:50.953Z,1.10
2018-12-20T11:20:25.486Z,1.25
2018-12-20T11:23:00.225Z,1.05
2018-12-20T11:25:34.818Z,6.70
2018-12-20T11:28:09.457Z,21.60
2018-12-20T11:30:44.157Z,11.50
2018-12-20T11:33:19.014Z,6.70
2018-12-20T11:35:53.701Z,2.60
2018-12-20T11:38:28.172Z,1.20
2018-12-20T11:41:02.869Z,1.00
2018-12-20T11:43:37.376Z,0.82
2018-12-20T11:46:12.165Z,1.00
2018-12-20T11:49:49.773Z,1.10
2018-12-20T11:52:24.331Z,1.00
2018-12-20T11:55:02.176Z,1.40
2018-12-20T11:57:36.793Z,1.10
2018-12-20T12:00:11.560Z,1.72
2018-12-20T12:02:46.105Z,12.35
2018-12-20T12:05:22.727Z,10.20
2018-12-20T12:07:57.311Z,3.50
2018-12-20T12:10:31.689Z,1.55
2018-12-20T12:13:06.281Z,1.07
2018-12-20T12:15:42.004Z,1.20
2018-12-20T12:18:16.413Z,3.05
2018-12-20T12:20:53.117Z,1.60
2018-12-20T12:23:27.746Z,1.15
2018-12-20T12:26:02.357Z,2.00
2018-12-20T12:28:37.243Z,0.70
2018-12-20T12:31:12.024Z,0.90
2018-12-20T12:33:46.638Z,0.90
2018-12-20T12:36:21.241Z,0.60
2018-12-20T12:38:55.949Z,0.95
2018-12-20T12:41:30.604Z,0.82
2018-12-20T12:44:05.391Z,0.50
2018-12-20T12:46:40.062Z,1.30
2018-12-20T12:49:14.835Z,1.05
2018-12-20T12:51:53.243Z,1.02
2018-12-20T12:54:25.920Z,1.22
2018-12-20T12:57:00.788Z,0.70
2018-12-20T12:59:35.417Z,1.02
2018-12-20T13:02:10.070Z,5.35
2018-12-20T13:04:44.597Z,4.70
2018-12-20T13:07:19.338Z,8.73
2018-12-20T13:09:53.854Z,2.95
2018-12-20T13:12:28.723Z,1.60
2018-12-20T13:15:04.053Z,0.78
2018-12-20T13:17:38.645Z,1.00
2018-12-20T13:20:13.353Z,1.00
2018-12-20T13:22:47.948Z,2.15
2018-12-20T13:25:22.504Z,0.50
2018-12-20T13:27:58.364Z,2.10
2018-12-20T13:30:32.863Z,0.82
2018-12-20T13:33:07.369Z,0.85
2018-12-20T13:35:42.154Z,1.40
2018-12-20T13:38:16.837Z,51.90
2018-12-20T13:40:51.294Z,8.15
2018-12-20T13:43:26.021Z,37.35
2018-12-20T13:46:05.443Z,2.30
2018-12-20T13:48:40.228Z,3.67
2018-12-20T13:51:14.969Z,0.88
2018-12-20T13:53:49.656Z,0.93
2018-12-20T13:56:25.397Z,1.85
2018-12-20T13:59:03.524Z,1.17
2018-12-20T14:01:36.699Z,4.90
2018-12-20T14:04:11.339Z,9.53
2018-12-20T14:06:46.231Z,14.10
2018-12-20T14:09:21.115Z,3.05
2018-12-20T14:11:55.625Z,1.98
2018-12-20T14:14:30.300Z,3.22
2018-12-20T14:17:06.187Z,10.80
2018-12-20T14:19:40.796Z,5.42
2018-12-20T14:22:15.665Z,9.25
2018-12-20T14:24:50.708Z,8.48
2018-12-20T14:27:25.628Z,13.20
2018-12-20T14:30:01.457Z,8.95
2018-12-20T14:32:37.057Z,6.20
2018-12-20T14:35:11.767Z,3.62
2018-12-20T14:37:46.810Z,3.25
2018-12-20T14:40:21.475Z,6.78
2018-12-20T14:42:56.252Z,8.98
2018-12-20T14:45:32.172Z,8.48
2018-12-20T14:48:07.153Z,12.35
2018-12-20T14:50:41.940Z,10.60
2018-12-20T14:53:18.019Z,7.08
2018-12-20T14:55:52.666Z,6.70
2018-12-20T14:58:27.548Z,5.83
2018-12-20T15:01:02.412Z,8.88
2018-12-20T15:03:37.175Z,12.53
2018-12-20T15:06:12.002Z,6.05
2018-12-20T15:08:46.561Z,1.65
2018-12-20T15:11:21.226Z,8.28
2018-12-20T15:13:56.100Z,7.28
2018-12-20T15:16:30.745Z,5.20
2018-12-20T15:19:05.561Z,15.32
2018-12-20T15:21:40.119Z,9.13
2018-12-20T15:24:14.901Z,4.03
2018-12-20T15:26:49.507Z,6.90
2018-12-20T15:29:24.148Z,19.20
2018-12-20T15:31:58.769Z,6.33
2018-12-20T15:34:41.760Z,5.17
2018-12-20T15:37:18.739Z,2.30
2018-12-20T15:39:53.542Z,1.77
2018-12-20T15:42:28.606Z,2.77
2018-12-20T15:45:06.261Z,10.82
2018-12-20T15:47:40.733Z,16.65
2018-12-20T15:50:15.335Z,8.28
2018-12-20T15:52:49.984Z,12.45
2018-12-20T15:55:24.639Z,15.25
2018-12-20T15:57:59.327Z,21.48
2018-12-20T16:00:34.116Z,14.35
2018-12-20T16:03:12.393Z,10.70
2018-12-20T16:05:52.049Z,11.03
2018-12-20T16:08:26.899Z,10.20
2018-12-20T16:11:01.656Z,7.97
2018-12-20T16:13:36.255Z,7.40
2018-12-20T16:16:11.156Z,8.85
2018-12-20T16:18:46.215Z,10.75
2018-12-20T16:21:20.949Z,10.82
2018-12-20T16:23:56.834Z,9.60
2018-12-20T16:26:31.682Z,7.22
2018-12-20T16:29:06.302Z,8.68
2018-12-20T16:31:46.808Z,8.90
2018-12-20T16:34:21.610Z,7.67
2018-12-20T16:36:56.257Z,7.75
2018-12-20T16:39:31.004Z,8.33
2018-12-20T16:42:05.802Z,8.45
2018-12-20T16:44:47.098Z,38.02
2018-12-20T16:47:21.686Z,17.98
2018-12-20T16:49:56.333Z,14.63
2018-12-20T16:52:32.160Z,20.15
2018-12-20T16:55:08.353Z,11.05
2018-12-20T16:57:43.225Z,11.55
2018-12-20T17:00:18.223Z,12.68
2018-12-20T17:02:53.101Z,13.20
2018-12-20T17:05:27.951Z,12.50
2018-12-20T17:08:02.786Z,14.40
2018-12-20T17:10:37.537Z,12.47
2018-12-20T17:13:12.334Z,12.18
2018-12-20T17:15:47.043Z,8.10
2018-12-20T17:18:22.865Z,6.58
2018-12-20T17:20:57.690Z,6.25
2018-12-20T17:23:35.693Z,6.70
2018-12-20T17:26:09.992Z,7.97
2018-12-20T17:28:50.407Z,20.68
2018-12-20T17:31:25.125Z,17.57
2018-12-20T17:34:01.780Z,7.05
2018-12-20T17:36:36.879Z,5.45
2018-12-20T17:39:11.711Z,9.88
2018-12-20T17:41:46.507Z,12.15
2018-12-20T17:44:22.285Z,14.10
2018-12-20T17:46:59.056Z,16.52
2018-12-20T17:49:33.881Z,9.70
2018-12-20T17:52:11.619Z,11.40
2018-12-20T17:54:50.148Z,6.30
2018-12-20T17:57:25.868Z,5.83
2018-12-20T18:00:00.936Z,8.05
2018-12-20T18:02:43.854Z,7.75
2018-12-20T18:05:18.654Z,7.17
2018-12-20T18:07:55.066Z,7.25
2018-12-20T18:10:34.783Z,6.55
2018-12-20T18:13:09.995Z,6.22
2018-12-20T18:15:46.940Z,7.15
2018-12-20T18:18:23.078Z,13.45
2018-12-20T18:20:59.741Z,10.70
2018-12-20T18:23:41.523Z,12.00
2018-12-20T18:26:18.834Z,13.13
2018-12-20T18:28:59.349Z,18.15
2018-12-20T18:31:35.951Z,19.00
2018-12-20T18:34:13.009Z,12.93
2018-12-20T18:36:50.363Z,13.95
2018-12-20T18:39:26.889Z,10.93
2018-12-20T18:42:04.059Z,14.47
2018-12-20T18:44:41.407Z,12.75
2018-12-20T18:47:17.939Z,12.80
2018-12-20T18:49:53.273Z,10.85
2018-12-20T18:52:29.476Z,12.18
2018-12-20T18:55:05.168Z,16.45
2018-12-20T18:57:40.184Z,12.33
2018-12-20T19:00:15.675Z,15.00
2018-12-20T19:02:50.814Z,12.40
2018-12-20T19:05:25.903Z,11.83
2018-12-20T19:08:02.060Z,12.73
2018-12-20T19:10:36.804Z,10.88
2018-12-20T19:13:11.836Z,11.75
2018-12-20T19:15:46.856Z,12.10
2018-12-20T19:18:21.668Z,11.30
2018-12-20T19:20:56.270Z,11.95
2018-12-20T19:23:30.803Z,20.97
2018-12-20T19:26:05.616Z,28.98
2018-12-20T19:28:40.686Z,24.67
2018-12-20T19:31:15.981Z,26.35
2018-12-20T19:33:52.232Z,15.72
2018-12-20T19:36:27.728Z,17.98
2018-12-20T19:39:04.253Z,16.77
2018-12-20T19:41:40.459Z,15.38
2018-12-20T19:44:20.767Z,15.58
2018-12-20T19:46:58.020Z,18.95
2018-12-20T19:49:35.438Z,17.87
2018-12-20T19:52:18.282Z,16.30
2018-12-20T19:54:55.530Z,14.55
2018-12-20T19:57:35.749Z,12.70
2018-12-20T20:00:14.982Z,10.93
2018-12-20T20:02:51.433Z,10.45
2018-12-20T20:05:27.950Z,11.60
2018-12-20T20:08:04.749Z,17.27
2018-12-20T20:10:44.909Z,20.52
2018-12-20T20:13:30.537Z,22.15
2018-12-20T20:16:03.591Z,38.05
2018-12-20T20:18:40.435Z,35.70
2018-12-20T20:21:16.865Z,19.07
2018-12-20T20:23:54.457Z,18.82
2018-12-20T20:29:11.516Z,13.48
2018-12-20T20:31:49.434Z,13.05
2018-12-20T20:34:24.596Z,11.45
2018-12-20T20:36:59.996Z,10.80
2018-12-20T20:39:37.448Z,11.10
2018-12-20T20:42:11.928Z,10.65
2018-12-20T20:44:50.889Z,7.20
2018-12-20T20:47:26.085Z,7.28
2018-12-20T20:50:02.732Z,15.13
2018-12-20T20:52:39.133Z,12.20
2018-12-20T20:55:13.886Z,7.20
2018-12-20T20:57:49.709Z,6.72
2018-12-20T21:00:24.537Z,4.70
2018-12-20T21:02:59.322Z,15.85
2018-12-20T21:05:34.035Z,17.15
2018-12-20T21:08:09.162Z,23.27
2018-12-20T21:10:45.298Z,20.50
2018-12-20T21:13:20.110Z,21.42
2018-12-20T21:15:54.688Z,11.45
2018-12-20T21:18:30.196Z,24.25
2018-12-20T21:21:04.996Z,14.18
2018-12-20T21:23:39.815Z,8.95
2018-12-20T21:26:14.964Z,11.40
2018-12-20T21:28:50.084Z,9.15
2018-12-20T21:31:25.400Z,11.10
2018-12-20T21:34:00.390Z,13.43
2018-12-20T21:36:35.703Z,19.52
2018-12-20T21:39:11.226Z,18.32
2018-12-20T21:41:47.098Z,17.77
2018-12-20T21:44:23.965Z,13.58
2018-12-20T21:46:59.110Z,11.30
2018-12-20T21:49:34.600Z,12.23
2018-12-20T21:52:10.285Z,14.00
2018-12-20T21:54:45.914Z,12.60
2018-12-20T21:57:21.586Z,14.10
2018-12-20T22:00:01.117Z,12.80
2018-12-20T22:02:35.246Z,13.58
2018-12-20T22:05:10.158Z,24.43
2018-12-20T22:07:44.746Z,14.10
2018-12-20T22:10:19.377Z,15.20
2018-12-20T22:12:54.238Z,15.00
2018-12-20T22:15:29.035Z,20.40
2018-12-20T22:18:04.880Z,14.10
2018-12-20T22:20:47.274Z,13.18
2018-12-20T22:23:17.572Z,13.78
2018-12-20T22:25:52.211Z,17.02
2018-12-20T22:28:26.712Z,16.25
2018-12-20T22:31:01.504Z,12.23
2018-12-20T22:33:36.216Z,11.22
2018-12-20T22:36:11.905Z,9.53
2018-12-20T22:38:46.591Z,10.40
2018-12-20T22:41:26.227Z,11.88
2018-12-20T22:44:00.735Z,9.38
2018-12-20T22:46:35.300Z,10.58
2018-12-20T22:49:11.955Z,9.50
2018-12-20T22:51:46.703Z,11.18
2018-12-20T22:54:21.395Z,13.18
2018-12-20T22:56:56.103Z,11.73
2018-12-20T22:59:35.447Z,13.40
2018-12-20T23:02:17.901Z,16.57
2018-12-20T23:04:46.778Z,17.92
2018-12-20T23:07:21.491Z,13.58
2018-12-20T23:09:57.406Z,11.57
2018-12-20T23:12:32.221Z,11.78
2018-12-20T23:15:06.992Z,9.10
2018-12-20T23:17:41.669Z,11.53
2018-12-20T23:20:18.095Z,10.15
2018-12-20T23:22:53.562Z,10.45
2018-12-20T23:25:30.133Z,12.73
2018-12-20T23:28:05.758Z,8.75
2018-12-20T23:30:40.537Z,9.70
2018-12-20T23:33:15.310Z,6.65
2018-12-20T23:35:49.898Z,5.30
2018-12-20T23:38:24.535Z,5.72
2018-12-20T23:41:01.364Z,6.37
2018-12-20T23:43:35.936Z,5.58
2018-12-20T23:46:11.688Z,5.70
2018-12-20T23:48:46.254Z,6.25
2018-12-20T23:51:21.271Z,6.90
2018-12-20T23:53:55.850Z,5.72
2018-12-20T23:56:30.239Z,8.55
2018-12-20T23:59:05.068Z,11.73
